Aérodrome :
LOGIN :

S'inscrire | Disclaimer

   EN    FR    IT 

 










Légende :    VFR   VFR Marginal   IFR   IFR Intensif   IFR Très Intensif
Visi : 
Plafond : 
>= 8 km
>= 3000ft
5 à 8 km
1000 à 3000 ft
1500m à 5 km
500 à 1000 ft
800 à 1500m
200 à 500 ft
< 800m
< 200 ft
Symboles :   Orages  Brouillard  Fortes neiges  Fortes précipitations  Vent > 20 kt
SIGMETs :   Divers  Orages  Givrage  Turbulence  Onde Orograph.  Cendres Volcan.






- Altitude de l'aérodrome : 323 ft
- Code IATA : KUO


EFKU - Kuopio

DERNIER METAR :
  • 222020Z AUTO 15003KT 120V180 9999 -RA OVC009 06/05 Q0993

METARs EXPIRÉS :
  • 221950Z AUTO 14004KT 9999 -RA OVC007 06/05 Q0993
  • 221920Z AUTO 13004KT 9999 -RA OVC007 06/05 Q0993
  • 221850Z AUTO 13006KT 9999 -RA OVC006 06/05 Q0993
  • 221820Z AUTO 13005KT 9999 -RA OVC006 06/05 Q0993
  • 221750Z AUTO 14004KT 9999 -RA OVC005 06/05 Q0994

TAF TAF EFKU
Valide du 22 à 18h jusqu'au 23 à 18h UTC


221734Z 2218/2318 14006KT 9999 -RA BKN005
TEMPO 2218/2221 5000 RA BKN003
BECMG 2221/2223 3000 -DZ BKN002
TEMPO 2223/2303 1200 BR
BECMG 2303/2305 29010KT 9999 NSW BKN005
BECMG 2310/2312 BKN015



MET'MAP, la Météo Aéronautique d'un coup d'oeil ! - Copyright ORBIFLY Décembre 2007 - Disclaimer

ORBIFLY MET'MAP TEAM :

Programmation & Développement : Alexandra Zaïnal
Sur une idée originale de : Baudouin d'Aumeries
Assistance à la programmation : Marc-Olivier Méhu
Soutien technique & logistique : Manuel Goepfert

Contact : metmap@orbifly.com




SOURCES & CREDITS :

   NOAA